sensor_id;sensor_type;location;lat;lon;timestamp;pressure;altitude;pressure_sealevel;temperature
67829;BMP280;54626;45.436;10.942;2023-05-21T00:02:22;100380.34;;;17.47
67829;BMP280;54626;45.436;10.942;2023-05-21T00:04:48;100373.31;;;17.46
67829;BMP280;54626;45.436;10.942;2023-05-21T00:07:15;100372.88;;;17.50
67829;BMP280;54626;45.436;10.942;2023-05-21T00:09:41;100372.13;;;17.49
67829;BMP280;54626;45.436;10.942;2023-05-21T00:17:50;100345.34;;;17.46
67829;BMP280;54626;45.436;10.942;2023-05-21T00:20:17;100355.34;;;17.49
67829;BMP280;54626;45.436;10.942;2023-05-21T00:22:43;100354.16;;;17.52
67829;BMP280;54626;45.436;10.942;2023-05-21T00:25:10;100353.44;;;17.52
67829;BMP280;54626;45.436;10.942;2023-05-21T00:27:38;100351.06;;;17.58
67829;BMP280;54626;45.436;10.942;2023-05-21T00:30:43;100349.00;;;17.58
67829;BMP280;54626;45.436;10.942;2023-05-21T00:33:10;100346.94;;;17.58
67829;BMP280;54626;45.436;10.942;2023-05-21T00:35:54;100347.78;;;17.61
67829;BMP280;54626;45.436;10.942;2023-05-21T00:38:22;100337.22;;;17.59
67829;BMP280;54626;45.436;10.942;2023-05-21T00:41:01;100341.34;;;17.58
67829;BMP280;54626;45.436;10.942;2023-05-21T00:43:28;100335.47;;;17.55
67829;BMP280;54626;45.436;10.942;2023-05-21T00:45:54;100336.19;;;17.55
67829;BMP280;54626;45.436;10.942;2023-05-21T00:48:22;100326.94;;;17.53
67829;BMP280;54626;45.436;10.942;2023-05-21T00:50:49;100331.19;;;17.54
67829;BMP280;54626;45.436;10.942;2023-05-21T00:53:27;100322.06;;;17.53
67829;BMP280;54626;45.436;10.942;2023-05-21T00:55:55;100324.56;;;17.58
67829;BMP280;54626;45.436;10.942;2023-05-21T00:58:38;100323.81;;;17.58
67829;BMP280;54626;45.436;10.942;2023-05-21T01:01:05;100327.38;;;17.58
67829;BMP280;54626;45.436;10.942;2023-05-21T01:04:06;100315.91;;;17.55
67829;BMP280;54626;45.436;10.942;2023-05-21T01:06:36;100317.22;;;17.54
67829;BMP280;54626;45.436;10.942;2023-05-21T01:09:43;100321.94;;;17.51
67829;BMP280;54626;45.436;10.942;2023-05-21T01:12:11;100326.66;;;17.49
67829;BMP280;54626;45.436;10.942;2023-05-21T01:15:09;100321.78;;;17.49
67829;BMP280;54626;45.436;10.942;2023-05-21T01:17:37;100321.50;;;17.45
67829;BMP280;54626;45.436;10.942;2023-05-21T01:20:05;100321.22;;;17.41
67829;BMP280;54626;45.436;10.942;2023-05-21T01:25:24;100318.53;;;17.43
67829;BMP280;54626;45.436;10.942;2023-05-21T01:28:16;100322.66;;;17.42
67829;BMP280;54626;45.436;10.942;2023-05-21T01:30:43;100317.53;;;17.39
67829;BMP280;54626;45.436;10.942;2023-05-21T01:33:48;100317.06;;;17.42
67829;BMP280;54626;45.436;10.942;2023-05-21T01:36:45;100312.09;;;17.41
67829;BMP280;54626;45.436;10.942;2023-05-21T01:39:16;100321.06;;;17.39
67829;BMP280;54626;45.436;10.942;2023-05-21T01:41:45;100312.66;;;17.39
67829;BMP280;54626;45.436;10.942;2023-05-21T01:47:16;100308.72;;;17.33
67829;BMP280;54626;45.436;10.942;2023-05-21T01:49:44;100303.56;;;17.29
67829;BMP280;54626;45.436;10.942;2023-05-21T01:52:10;100307.41;;;17.24
67829;BMP280;54626;45.436;10.942;2023-05-21T01:54:38;100308.31;;;17.17
67829;BMP280;54626;45.436;10.942;2023-05-21T01:57:04;100307.59;;;17.17
67829;BMP280;54626;45.436;10.942;2023-05-21T01:59:32;100303.75;;;17.12
67829;BMP280;54626;45.436;10.942;2023-05-21T02:02:11;100302.88;;;17.10
67829;BMP280;54626;45.436;10.942;2023-05-21T02:07:15;100301.09;;;17.05
67829;BMP280;54626;45.436;10.942;2023-05-21T02:09:43;100305.22;;;17.04
67829;BMP280;54626;45.436;10.942;2023-05-21T02:12:28;100310.81;;;17.04
67829;BMP280;54626;45.436;10.942;2023-05-21T02:14:54;100291.13;;;17.02
67829;BMP280;54626;45.436;10.942;2023-05-21T02:17:30;100294.03;;;17.04
67829;BMP280;54626;45.436;10.942;2023-05-21T02:20:14;100300.81;;;17.01
67829;BMP280;54626;45.436;10.942;2023-05-21T02:22:44;100292.59;;;17.03
67829;BMP280;54626;45.436;10.942;2023-05-21T02:25:12;100289.81;;;17.03
67829;BMP280;54626;45.436;10.942;2023-05-21T02:27:39;100285.06;;;17.05
67829;BMP280;54626;45.436;10.942;2023-05-21T02:30:12;100285.06;;;17.05
67829;BMP280;54626;45.436;10.942;2023-05-21T02:32:39;100292.59;;;17.03
67829;BMP280;54626;45.436;10.942;2023-05-21T02:35:11;100290.38;;;17.01
67829;BMP280;54626;45.436;10.942;2023-05-21T02:37:38;100280.97;;;16.97
67829;BMP280;54626;45.436;10.942;2023-05-21T02:40:21;100278.19;;;16.97
67829;BMP280;54626;45.436;10.942;2023-05-21T02:42:50;100270.53;;;16.97
67829;BMP280;54626;45.436;10.942;2023-05-21T02:48:53;100266.84;;;16.95
67829;BMP280;54626;45.436;10.942;2023-05-21T02:51:20;100266.09;;;16.94
67829;BMP280;54626;45.436;10.942;2023-05-21T02:53:47;100263.47;;;16.96
67829;BMP280;54626;45.436;10.942;2023-05-21T02:56:16;100260.97;;;16.91
67829;BMP280;54626;45.436;10.942;2023-05-21T03:01:56;100255.53;;;16.93
67829;BMP280;54626;45.436;10.942;2023-05-21T03:04:22;100258.19;;;16.91
67829;BMP280;54626;45.436;10.942;2023-05-21T03:06:49;100254.19;;;16.94
67829;BMP280;54626;45.436;10.942;2023-05-21T03:09:21;100263.16;;;16.93
67829;BMP280;54626;45.436;10.942;2023-05-21T03:11:48;100252.88;;;16.95
67829;BMP280;54626;45.436;10.942;2023-05-21T03:21:18;100252.31;;;16.87
67829;BMP280;54626;45.436;10.942;2023-05-21T03:23:48;100250.84;;;16.86
67829;BMP280;54626;45.436;10.942;2023-05-21T03:26:14;100257.75;;;16.85
67829;BMP280;54626;45.436;10.942;2023-05-21T03:28:41;100255.38;;;16.82
67829;BMP280;54626;45.436;10.942;2023-05-21T03:31:24;100257.00;;;16.75
67829;BMP280;54626;45.436;10.942;2023-05-21T03:33:50;100255.09;;;16.78
67829;BMP280;54626;45.436;10.942;2023-05-21T03:36:18;100241.56;;;16.84
67829;BMP280;54626;45.436;10.942;2023-05-21T03:38:48;100242.88;;;16.83
67829;BMP280;54626;45.436;10.942;2023-05-21T03:41:14;100245.25;;;16.86
67829;BMP280;54626;45.436;10.942;2023-05-21T03:43:41;100244.66;;;16.88
67829;BMP280;54626;45.436;10.942;2023-05-21T03:46:08;100248.91;;;16.89
67829;BMP280;54626;45.436;10.942;2023-05-21T03:49:00;100244.66;;;16.88
67829;BMP280;54626;45.436;10.942;2023-05-21T03:51:27;100246.72;;;16.87
67829;BMP280;54626;45.436;10.942;2023-05-21T03:54:09;100248.19;;;16.88
67829;BMP280;54626;45.436;10.942;2023-05-21T03:56:38;100245.53;;;16.90
67829;BMP280;54626;45.436;10.942;2023-05-21T03:59:04;100238.91;;;16.95
67829;BMP280;54626;45.436;10.942;2023-05-21T04:01:31;100243.47;;;17.00
67829;BMP280;54626;45.436;10.942;2023-05-21T04:03:58;100238.47;;;17.08
67829;BMP280;54626;45.436;10.942;2023-05-21T04:06:26;100251.09;;;17.09
67829;BMP280;54626;45.436;10.942;2023-05-21T04:08:53;100252.56;;;17.10
67829;BMP280;54626;45.436;10.942;2023-05-21T04:11:20;100246.97;;;17.10
67829;BMP280;54626;45.436;10.942;2023-05-21T04:13:47;100255.81;;;17.06
67829;BMP280;54626;45.436;10.942;2023-05-21T04:16:13;100255.50;;;17.02
67829;BMP280;54626;45.436;10.942;2023-05-21T04:18:45;100262.00;;;17.05
67829;BMP280;54626;45.436;10.942;2023-05-21T04:21:12;100255.66;;;17.04
67829;BMP280;54626;45.436;10.942;2023-05-21T04:23:40;100262.00;;;17.05
67829;BMP280;54626;45.436;10.942;2023-05-21T04:26:06;100252.72;;;17.02
67829;BMP280;54626;45.436;10.942;2023-05-21T04:28:35;100266.97;;;17.06
67829;BMP280;54626;45.436;10.942;2023-05-21T04:31:04;100261.84;;;17.03
67829;BMP280;54626;45.436;10.942;2023-05-21T04:33:33;100258.03;;;17.08
67829;BMP280;54626;45.436;10.942;2023-05-21T04:36:31;100257.56;;;17.11
67829;BMP280;54626;45.436;10.942;2023-05-21T04:39:29;100254.59;;;17.19
67829;BMP280;54626;45.436;10.942;2023-05-21T04:41:56;100252.97;;;17.25
67829;BMP280;54626;45.436;10.942;2023-05-21T04:44:30;100256.66;;;17.28
67829;BMP280;54626;45.436;10.942;2023-05-21T04:46:59;100254.16;;;17.32
67829;BMP280;54626;45.436;10.942;2023-05-21T04:49:26;100253.81;;;17.37
67829;BMP280;54626;45.436;10.942;2023-05-21T04:51:53;100263.09;;;17.40
67829;BMP280;54626;45.436;10.942;2023-05-21T04:54:19;100262.78;;;17.45
67829;BMP280;54626;45.436;10.942;2023-05-21T04:56:46;100262.34;;;17.49
67829;BMP280;54626;45.436;10.942;2023-05-21T04:59:39;100261.44;;;17.56
67829;BMP280;54626;45.436;10.942;2023-05-21T05:05:59;100264.78;;;17.63
67829;BMP280;54626;45.436;10.942;2023-05-21T05:08:26;100256.06;;;17.69
67829;BMP280;54626;45.436;10.942;2023-05-21T05:10:53;100263.22;;;17.81
67829;BMP280;54626;45.436;10.942;2023-05-21T05:13:29;100256.72;;;17.88
67829;BMP280;54626;45.436;10.942;2023-05-21T05:15:56;100261.13;;;17.91
67829;BMP280;54626;45.436;10.942;2023-05-21T05:21:12;100264.63;;;18.01
67829;BMP280;54626;45.436;10.942;2023-05-21T05:23:56;100266.22;;;18.04
67829;BMP280;54626;45.436;10.942;2023-05-21T05:26:24;100272.34;;;18.12
67829;BMP280;54626;45.436;10.942;2023-05-21T05:36:16;100261.66;;;18.29
67829;BMP280;54626;45.436;10.942;2023-05-21T05:38:43;100268.25;;;18.34
67829;BMP280;54626;45.436;10.942;2023-05-21T05:41:09;100272.09;;;18.29
67829;BMP280;54626;45.436;10.942;2023-05-21T05:43:36;100268.50;;;18.38
67829;BMP280;54626;45.436;10.942;2023-05-21T05:46:02;100262.84;;;18.47
67829;BMP280;54626;45.436;10.942;2023-05-21T05:48:29;100258.31;;;18.42
67829;BMP280;54626;45.436;10.942;2023-05-21T05:50:56;100270.50;;;18.47
67829;BMP280;54626;45.436;10.942;2023-05-21T05:53:38;100269.28;;;18.50
67829;BMP280;54626;45.436;10.942;2023-05-21T05:56:22;100275.66;;;18.50
67829;BMP280;54626;45.436;10.942;2023-05-21T05:58:49;100266.03;;;18.53
67829;BMP280;54626;45.436;10.942;2023-05-21T06:01:15;100280.31;;;18.57
67829;BMP280;54626;45.436;10.942;2023-05-21T06:03:43;100270.81;;;18.62
67829;BMP280;54626;45.436;10.942;2023-05-21T06:09:31;100273.38;;;18.90
67829;BMP280;54626;45.436;10.942;2023-05-21T06:11:57;100275.97;;;18.98
67829;BMP280;54626;45.436;10.942;2023-05-21T06:14:24;100280.97;;;18.99
67829;BMP280;54626;45.436;10.942;2023-05-21T06:16:50;100272.22;;;19.05
67829;BMP280;54626;45.436;10.942;2023-05-21T06:19:17;100275.63;;;19.03
67829;BMP280;54626;45.436;10.942;2023-05-21T06:21:46;100271.44;;;18.93
67829;BMP280;54626;45.436;10.942;2023-05-21T06:24:13;100274.00;;;18.89
67829;BMP280;54626;45.436;10.942;2023-05-21T06:26:39;100273.38;;;18.90
67829;BMP280;54626;45.436;10.942;2023-05-21T06:29:06;100271.91;;;18.89
67829;BMP280;54626;45.436;10.942;2023-05-21T06:31:33;100280.94;;;18.88
67829;BMP280;54626;45.436;10.942;2023-05-21T06:34:06;100270.69;;;18.92
67829;BMP280;54626;45.436;10.942;2023-05-21T06:36:33;100277.44;;;18.99
67829;BMP280;54626;45.436;10.942;2023-05-21T06:41:35;100275.69;;;19.26
67829;BMP280;54626;45.436;10.942;2023-05-21T06:44:02;100272.16;;;19.48
67829;BMP280;54626;45.436;10.942;2023-05-21T06:48:53;100274.25;;;19.94
67829;BMP280;54626;45.436;10.942;2023-05-21T06:51:20;100284.56;;;20.25
67829;BMP280;54626;45.436;10.942;2023-05-21T06:53:46;100286.94;;;20.54
67829;BMP280;54626;45.436;10.942;2023-05-21T06:56:13;100284.78;;;20.77
67829;BMP280;54626;45.436;10.942;2023-05-21T06:58:40;100285.50;;;21.02
67829;BMP280;54626;45.436;10.942;2023-05-21T07:01:06;100284.16;;;21.03
67829;BMP280;54626;45.436;10.942;2023-05-21T07:03:34;100280.47;;;21.25
67829;BMP280;54626;45.436;10.942;2023-05-21T07:06:03;100289.47;;;21.49
67829;BMP280;54626;45.436;10.942;2023-05-21T07:08:29;100290.00;;;21.85
67829;BMP280;54626;45.436;10.942;2023-05-21T07:10:56;100289.59;;;22.18
67829;BMP280;54626;45.436;10.942;2023-05-21T07:13:23;100290.50;;;22.35
67829;BMP280;54626;45.436;10.942;2023-05-21T07:15:50;100284.84;;;22.64
67829;BMP280;54626;45.436;10.942;2023-05-21T07:18:16;100293.63;;;22.85
67829;BMP280;54626;45.436;10.942;2023-05-21T07:24:16;100277.03;;;23.37
67829;BMP280;54626;45.436;10.942;2023-05-21T07:26:43;100279.47;;;23.60
67829;BMP280;54626;45.436;10.942;2023-05-21T07:29:36;100274.34;;;24.05
67829;BMP280;54626;45.436;10.942;2023-05-21T07:32:29;100261.63;;;24.21
67829;BMP280;54626;45.436;10.942;2023-05-21T07:34:58;100273.63;;;24.04
67829;BMP280;54626;45.436;10.942;2023-05-21T07:40:53;100271.75;;;23.93
67829;BMP280;54626;45.436;10.942;2023-05-21T07:47:01;100270.28;;;24.60
67829;BMP280;54626;45.436;10.942;2023-05-21T07:49:27;100277.69;;;24.51
67829;BMP280;54626;45.436;10.942;2023-05-21T07:51:54;100277.44;;;24.45
67829;BMP280;54626;45.436;10.942;2023-05-21T07:54:21;100276.91;;;24.49
67829;BMP280;54626;45.436;10.942;2023-05-21T07:56:48;100279.38;;;24.58
67829;BMP280;54626;45.436;10.942;2023-05-21T08:02:37;100281.81;;;25.39
67829;BMP280;54626;45.436;10.942;2023-05-21T08:05:04;100283.47;;;26.06
67829;BMP280;54626;45.436;10.942;2023-05-21T08:07:31;100283.53;;;26.29
67829;BMP280;54626;45.436;10.942;2023-05-21T08:09:58;100284.31;;;26.32
67829;BMP280;54626;45.436;10.942;2023-05-21T08:12:26;100287.78;;;26.30
67829;BMP280;54626;45.436;10.942;2023-05-21T08:14:52;100282.22;;;25.70
67829;BMP280;54626;45.436;10.942;2023-05-21T08:17:19;100292.03;;;25.67
67829;BMP280;54626;45.436;10.942;2023-05-21T08:19:46;100297.47;;;25.81
67829;BMP280;54626;45.436;10.942;2023-05-21T08:22:12;100295.31;;;25.60
67829;BMP280;54626;45.436;10.942;2023-05-21T08:24:39;100285.16;;;25.53
67829;BMP280;54626;45.436;10.942;2023-05-21T08:27:08;100291.31;;;25.67
67829;BMP280;54626;45.436;10.942;2023-05-21T08:29:35;100288.47;;;25.67
67829;BMP280;54626;45.436;10.942;2023-05-21T08:32:02;100291.31;;;25.47
67829;BMP280;54626;45.436;10.942;2023-05-21T08:34:29;100284.84;;;25.26
67829;BMP280;54626;45.436;10.942;2023-05-21T08:36:55;100289.63;;;25.21
67829;BMP280;54626;45.436;10.942;2023-05-21T08:39:28;100290.50;;;25.26
67829;BMP280;54626;45.436;10.942;2023-05-21T08:41:58;100288.09;;;24.82
67829;BMP280;54626;45.436;10.942;2023-05-21T08:45:05;100294.47;;;25.19
67829;BMP280;54626;45.436;10.942;2023-05-21T08:50:57;100300.84;;;25.75
67829;BMP280;54626;45.436;10.942;2023-05-21T08:53:46;100292.84;;;26.32
67829;BMP280;54626;45.436;10.942;2023-05-21T08:56:15;100287.50;;;26.65
67829;BMP280;54626;45.436;10.942;2023-05-21T08:58:45;100286.47;;;26.78
67829;BMP280;54626;45.436;10.942;2023-05-21T09:01:12;100293.91;;;26.88
67829;BMP280;54626;45.436;10.942;2023-05-21T09:03:39;100298.25;;;26.68
67829;BMP280;54626;45.436;10.942;2023-05-21T09:06:10;100287.75;;;26.73
67829;BMP280;54626;45.436;10.942;2023-05-21T09:08:54;100290.94;;;26.61
67829;BMP280;54626;45.436;10.942;2023-05-21T09:11:23;100284.84;;;26.47
67829;BMP280;54626;45.436;10.942;2023-05-21T09:13:52;100283.88;;;26.62
67829;BMP280;54626;45.436;10.942;2023-05-21T09:16:19;100284.16;;;26.70
67829;BMP280;54626;45.436;10.942;2023-05-21T09:18:47;100283.25;;;27.12
67829;BMP280;54626;45.436;10.942;2023-05-21T09:21:28;100285.91;;;27.30
67829;BMP280;54626;45.436;10.942;2023-05-21T09:23:56;100283.97;;;27.38
67829;BMP280;54626;45.436;10.942;2023-05-21T09:26:24;100279.53;;;27.56
67829;BMP280;54626;45.436;10.942;2023-05-21T09:28:56;100278.13;;;27.32
67829;BMP280;54626;45.436;10.942;2023-05-21T09:31:23;100279.56;;;27.08
67829;BMP280;54626;45.436;10.942;2023-05-21T09:33:49;100284.16;;;27.19
67829;BMP280;54626;45.436;10.942;2023-05-21T09:36:18;100284.09;;;27.17
67829;BMP280;54626;45.436;10.942;2023-05-21T09:38:48;100280.59;;;27.18
67829;BMP280;54626;45.436;10.942;2023-05-21T09:41:17;100286.78;;;27.36
67829;BMP280;54626;45.436;10.942;2023-05-21T09:53:29;100283.22;;;27.35
67829;BMP280;54626;45.436;10.942;2023-05-21T09:55:58;100282.88;;;27.49
67829;BMP280;54626;45.436;10.942;2023-05-21T09:58:25;100279.53;;;27.56
67829;BMP280;54626;45.436;10.942;2023-05-21T10:00:51;100282.59;;;27.64
67829;BMP280;54626;45.436;10.942;2023-05-21T10:13:11;100288.16;;;27.60
67829;BMP280;54626;45.436;10.942;2023-05-21T10:15:41;100281.94;;;27.68
67829;BMP280;54626;45.436;10.942;2023-05-21T10:18:11;100287.44;;;27.87
67829;BMP280;54626;45.436;10.942;2023-05-21T10:20:38;100295.16;;;28.12
67829;BMP280;54626;45.436;10.942;2023-05-21T10:23:06;100294.97;;;28.04
67829;BMP280;54626;45.436;10.942;2023-05-21T10:25:33;100281.34;;;27.71
67829;BMP280;54626;45.436;10.942;2023-05-21T10:28:01;100280.19;;;27.55
67829;BMP280;54626;45.436;10.942;2023-05-21T10:30:28;100276.13;;;27.89
67829;BMP280;54626;45.436;10.942;2023-05-21T10:36:00;100280.88;;;27.53
67829;BMP280;54626;45.436;10.942;2023-05-21T10:38:55;100293.13;;;27.87
67829;BMP280;54626;45.436;10.942;2023-05-21T10:54:44;100268.66;;;28.97
67829;BMP280;54626;45.436;10.942;2023-05-21T11:00:02;100271.88;;;29.52
67829;BMP280;54626;45.436;10.942;2023-05-21T11:02:32;100269.97;;;29.27
67829;BMP280;54626;45.436;10.942;2023-05-21T11:05:00;100266.59;;;28.68
67829;BMP280;54626;45.436;10.942;2023-05-21T11:07:49;100260.31;;;28.40
67829;BMP280;54626;45.436;10.942;2023-05-21T11:10:39;100260.75;;;28.60
67829;BMP280;54626;45.436;10.942;2023-05-21T11:13:11;100260.63;;;29.23
67829;BMP280;54626;45.436;10.942;2023-05-21T11:21:17;100254.78;;;29.17
67829;BMP280;54626;45.436;10.942;2023-05-21T11:23:50;100264.72;;;29.51
67829;BMP280;54626;45.436;10.942;2023-05-21T11:26:18;100258.34;;;29.54
67829;BMP280;54626;45.436;10.942;2023-05-21T11:31:31;100254.41;;;29.32
67829;BMP280;54626;45.436;10.942;2023-05-21T11:34:21;100261.25;;;29.17
67829;BMP280;54626;45.436;10.942;2023-05-21T11:40:31;100257.41;;;29.42
67829;BMP280;54626;45.436;10.942;2023-05-21T11:42:58;100246.13;;;29.48
67829;BMP280;54626;45.436;10.942;2023-05-21T11:45:28;100255.44;;;29.52
67829;BMP280;54626;45.436;10.942;2023-05-21T11:47:56;100258.41;;;29.58
67829;BMP280;54626;45.436;10.942;2023-05-21T11:50:24;100247.09;;;29.62
67829;BMP280;54626;45.436;10.942;2023-05-21T11:52:51;100245.75;;;29.67
67829;BMP280;54626;45.436;10.942;2023-05-21T11:55:23;100239.03;;;29.49
67829;BMP280;54626;45.436;10.942;2023-05-21T11:57:52;100249.59;;;29.83
67829;BMP280;54626;45.436;10.942;2023-05-21T12:00:19;100247.41;;;29.82
67829;BMP280;54626;45.436;10.942;2023-05-21T12:02:50;100226.50;;;29.68
67829;BMP280;54626;45.436;10.942;2023-05-21T12:05:16;100240.41;;;29.46
67829;BMP280;54626;45.436;10.942;2023-05-21T12:07:46;100246.59;;;29.73
67829;BMP280;54626;45.436;10.942;2023-05-21T12:10:19;100251.09;;;29.88
67829;BMP280;54626;45.436;10.942;2023-05-21T12:12:47;100250.66;;;30.06
67829;BMP280;54626;45.436;10.942;2023-05-21T12:15:22;100246.09;;;29.89
67829;BMP280;54626;45.436;10.942;2023-05-21T12:17:49;100240.16;;;29.75
67829;BMP280;54626;45.436;10.942;2023-05-21T12:20:18;100234.78;;;29.95
67829;BMP280;54626;45.436;10.942;2023-05-21T12:22:47;100242.72;;;30.00
67829;BMP280;54626;45.436;10.942;2023-05-21T12:25:16;100244.63;;;29.86
67829;BMP280;54626;45.436;10.942;2023-05-21T12:31:31;100235.22;;;29.77
67829;BMP280;54626;45.436;10.942;2023-05-21T12:33:58;100239.03;;;29.49
67829;BMP280;54626;45.436;10.942;2023-05-21T12:36:29;100234.75;;;29.93
67829;BMP280;54626;45.436;10.942;2023-05-21T12:38:57;100233.97;;;29.45
67829;BMP280;54626;45.436;10.942;2023-05-21T12:41:23;100232.34;;;29.34
67829;BMP280;54626;45.436;10.942;2023-05-21T12:43:51;100230.66;;;30.06
67829;BMP280;54626;45.436;10.942;2023-05-21T12:46:19;100237.16;;;30.10
67829;BMP280;54626;45.436;10.942;2023-05-21T12:49:08;100231.38;;;30.53
67829;BMP280;54626;45.436;10.942;2023-05-21T12:55:31;100231.28;;;29.98
67829;BMP280;54626;45.436;10.942;2023-05-21T12:58:02;100241.66;;;30.23
67829;BMP280;54626;45.436;10.942;2023-05-21T13:00:31;100245.53;;;30.47
67829;BMP280;54626;45.436;10.942;2023-05-21T13:02:58;100239.53;;;30.27
67829;BMP280;54626;45.436;10.942;2023-05-21T13:05:26;100241.59;;;30.72
67829;BMP280;54626;45.436;10.942;2023-05-21T13:07:52;100230.72;;;30.60
67829;BMP280;54626;45.436;10.942;2023-05-21T13:10:19;100230.66;;;31.15
67829;BMP280;54626;45.436;10.942;2023-05-21T13:12:45;100226.63;;;31.42
67829;BMP280;54626;45.436;10.942;2023-05-21T13:15:13;100225.75;;;31.28
67829;BMP280;54626;45.436;10.942;2023-05-21T13:17:40;100224.47;;;31.43
67829;BMP280;54626;45.436;10.942;2023-05-21T13:20:23;100224.53;;;31.50
67829;BMP280;54626;45.436;10.942;2023-05-21T13:26:10;100223.41;;;31.06
67829;BMP280;54626;45.436;10.942;2023-05-21T13:28:36;100228.88;;;31.57
67829;BMP280;54626;45.436;10.942;2023-05-21T13:31:03;100216.50;;;31.29
67829;BMP280;54626;45.436;10.942;2023-05-21T13:33:35;100220.88;;;30.71
67829;BMP280;54626;45.436;10.942;2023-05-21T13:36:22;100215.97;;;30.80
67829;BMP280;54626;45.436;10.942;2023-05-21T13:38:48;100229.13;;;31.06
67829;BMP280;54626;45.436;10.942;2023-05-21T13:41:15;100227.44;;;30.82
67829;BMP280;54626;45.436;10.942;2023-05-21T13:43:43;100222.03;;;31.11
67829;BMP280;54626;45.436;10.942;2023-05-21T13:46:22;100218.03;;;31.40
67829;BMP280;54626;45.436;10.942;2023-05-21T13:48:48;100215.06;;;31.30
67829;BMP280;54626;45.436;10.942;2023-05-21T13:51:15;100215.34;;;31.64
67829;BMP280;54626;45.436;10.942;2023-05-21T13:54:02;100222.75;;;31.14
67829;BMP280;54626;45.436;10.942;2023-05-21T13:56:28;100227.78;;;31.15
67829;BMP280;54626;45.436;10.942;2023-05-21T13:59:00;100224.41;;;31.37
67829;BMP280;54626;45.436;10.942;2023-05-21T14:04:55;100229.63;;;30.34
67829;BMP280;54626;45.436;10.942;2023-05-21T14:11:08;100216.91;;;30.43
67829;BMP280;54626;45.436;10.942;2023-05-21T14:13:34;100209.72;;;30.38
67829;BMP280;54626;45.436;10.942;2023-05-21T14:19:39;100217.97;;;30.69
67829;BMP280;54626;45.436;10.942;2023-05-21T14:22:06;100221.03;;;30.85
67829;BMP280;54626;45.436;10.942;2023-05-21T14:24:32;100224.69;;;30.94
67829;BMP280;54626;45.436;10.942;2023-05-21T14:26:59;100222.19;;;30.62
67829;BMP280;54626;45.436;10.942;2023-05-21T14:29:29;100219.00;;;30.37
67829;BMP280;54626;45.436;10.942;2023-05-21T14:31:55;100226.09;;;30.34
67829;BMP280;54626;45.436;10.942;2023-05-21T14:34:22;100215.53;;;30.46
67829;BMP280;54626;45.436;10.942;2023-05-21T14:36:48;100214.16;;;30.49
67829;BMP280;54626;45.436;10.942;2023-05-21T14:39:15;100214.13;;;31.08
67829;BMP280;54626;45.436;10.942;2023-05-21T14:41:42;100219.97;;;31.20
67829;BMP280;54626;45.436;10.942;2023-05-21T14:44:08;100217.16;;;31.26
67829;BMP280;54626;45.436;10.942;2023-05-21T14:46:36;100212.00;;;31.10
67829;BMP280;54626;45.436;10.942;2023-05-21T14:49:03;100209.78;;;31.03
67829;BMP280;54626;45.436;10.942;2023-05-21T14:51:31;100216.56;;;31.35
67829;BMP280;54626;45.436;10.942;2023-05-21T14:53:57;100208.91;;;31.63
67829;BMP280;54626;45.436;10.942;2023-05-21T14:56:25;100205.56;;;31.96
67829;BMP280;54626;45.436;10.942;2023-05-21T14:58:53;100209.81;;;31.88
67829;BMP280;54626;45.436;10.942;2023-05-21T15:01:20;100210.91;;;31.43
67829;BMP280;54626;45.436;10.942;2023-05-21T15:03:46;100218.09;;;31.46
67829;BMP280;54626;45.436;10.942;2023-05-21T15:06:13;100216.69;;;31.53
67829;BMP280;54626;45.436;10.942;2023-05-21T15:08:40;100215.50;;;31.86
67829;BMP280;54626;45.436;10.942;2023-05-21T15:11:07;100211.03;;;31.61
67829;BMP280;54626;45.436;10.942;2023-05-21T15:13:35;100211.88;;;31.83
67829;BMP280;54626;45.436;10.942;2023-05-21T15:16:02;100209.75;;;31.84
67829;BMP280;54626;45.436;10.942;2023-05-21T15:18:29;100202.59;;;31.79
67829;BMP280;54626;45.436;10.942;2023-05-21T15:20:55;100205.47;;;31.83
67829;BMP280;54626;45.436;10.942;2023-05-21T15:23:22;100215.50;;;31.84
67829;BMP280;54626;45.436;10.942;2023-05-21T15:25:48;100202.78;;;32.10
67829;BMP280;54626;45.436;10.942;2023-05-21T15:28:15;100199.66;;;31.67
67829;BMP280;54626;45.436;10.942;2023-05-21T15:30:42;100204.03;;;31.84
67829;BMP280;54626;45.436;10.942;2023-05-21T15:33:10;100204.84;;;31.98
67829;BMP280;54626;45.436;10.942;2023-05-21T15:35:36;100203.22;;;31.71
67829;BMP280;54626;45.436;10.942;2023-05-21T15:38:04;100204.50;;;31.48
67829;BMP280;54626;45.436;10.942;2023-05-21T15:40:31;100204.56;;;31.58
67829;BMP280;54626;45.436;10.942;2023-05-21T15:42:57;100207.41;;;31.56
67829;BMP280;54626;45.436;10.942;2023-05-21T15:45:24;100205.28;;;31.57
67829;BMP280;54626;45.436;10.942;2023-05-21T15:47:51;100195.72;;;31.25
67829;BMP280;54626;45.436;10.942;2023-05-21T15:50:17;100206.63;;;31.46
67829;BMP280;54626;45.436;10.942;2023-05-21T15:52:47;100204.38;;;30.66
67829;BMP280;54626;45.436;10.942;2023-05-21T15:55:16;100209.78;;;31.03
67829;BMP280;54626;45.436;10.942;2023-05-21T15:57:57;100199.97;;;31.20
67829;BMP280;54626;45.436;10.942;2023-05-21T16:00:27;100204.91;;;31.15
67829;BMP280;54626;45.436;10.942;2023-05-21T16:03:03;100206.22;;;31.04
67829;BMP280;54626;45.436;10.942;2023-05-21T16:11:21;100200.72;;;31.22
67829;BMP280;54626;45.436;10.942;2023-05-21T16:14:01;100198.06;;;31.48
67829;BMP280;54626;45.436;10.942;2023-05-21T16:19:16;100197.41;;;30.83
67829;BMP280;54626;45.436;10.942;2023-05-21T16:21:42;100210.91;;;30.76
67829;BMP280;54626;45.436;10.942;2023-05-21T16:24:09;100204.94;;;30.55
67829;BMP280;54626;45.436;10.942;2023-05-21T16:26:35;100208.47;;;30.51
67829;BMP280;54626;45.436;10.942;2023-05-21T16:32:24;100200.06;;;30.10
67829;BMP280;54626;45.436;10.942;2023-05-21T16:38:21;100200.25;;;29.77